Darlington, WI

3:43 AM CDT en Octubre 21, 2014 (GMT -0500)
KWIMINER1 | Change Station
CLOSE
Current Station
Estación meteorológica personal
Location: Mineral Point, WI
Altura: 1066 ft
Estaciones meteorológicas cercanas

Alt 1066 ft 42.85 °N, 90.18 °W | Updated 14 minutes ago

Despejado
Despejado
34.8 ° F
Sensación térmica 35 ° F
N
0.0
Viento Variable Viento desde ONO
Gusts 0.0 mph

Hoy
Alta -- | Baja -- ° F
--% Posibilidad de precipitaciones
Ayer
Alta -- | Baja -- ° F
Precip. -- pul
7:20 AM 6:08 PM
Creciente menguante, 6% visible
Presión 30.08 pul
Visibilidad 10.0 Millas
Nubes Despejado
Vientos helados 35 ° F
Punto de rocío 34 ° F
Humedad 95%
Precipitaciones 0.00 pul
Espesor de la nieve No disponible.
UV 0 de una escala de 12
Polen 1.80 de una escala de 12
Calidad del aire No disponible.
Flu Activity Sporadic
METAR KMRJ 210815Z AUTO 00000KT 10SM CLR 05/03 A3008 RMK AO2

More Conditions Fewer Conditions

Presión 30.08 pul
Visibilidad 10.0 Millas
Nubes Despejado
Vientos helados 35 ° F
Punto de rocío 34 ° F
Humedad 95%
Precipitaciones 0.00 pul
Espesor de la nieve No disponible.
UV 0 de una escala de 12
Polen 1.80 de una escala de 12
Calidad del aire No disponible.
Flu Activity Sporadic
METAR KMRJ 210815Z AUTO 00000KT 10SM CLR 05/03 A3008 RMK AO2

More Conditions Fewer Conditions

10-Day Weather Forecast

Almanac

Astronomía

Oct. 21, 2014 Salida Puesta
Hora real 7:20 AM CDT 6:08 PM CDT
Crepúsculo civil 6:52 AM CDT 6:37 PM CDT
Crepúsculo náutico 6:19 AM CDT 7:10 PM CDT
Crepúsculo astronómico 5:46 AM CDT 7:42 PM CDT
Luna 5:02 AM CDT 5:05 PM CDT
Horas de luz 11h 45m
Horas de luz
10h 47m
Tomorrow will be 2m 43s shorter.
Creciente menguante, 6% of the Moon is Illuminated
Hoy
Creciente menguante
Oct 23
Nueva
Oct 30
Cuarto creciente
Nov 6
Luna llena
Nov 14
Cuarto menguante

Extremos de hoy

Máximos del estado Bajos del estado

Community

WunderPhotos

Upload Photos

1,763,619 ¡fotos cargadas!

Nearby

Grosos de nieve

Estación Profundido Altura
No tenemos constancia de nieve nueva.

Actividad de terremotos

Ciudad Distance Mag. Tiempo y dato
No hay informes recientes de la actividad sísmica.
Magnitud mínima muestra es 2,5.

Temperaturas de aguas costeras

Lugar Temperatura
Sin partes meteorológicos de las estaciones

Estaciones meteorológicas cercanas